Time;durP1;ratioP1;P1;durP2;ratioP2;P2;SDS_P1;SDS_P2;PMS_P1;PMS_P2;Temp;Humidity;BMP_temperature;BMP_pressure;BME280_temperature;BME280_humidity;BME280_pressure;Samples;Min_cycle;Max_cycle;Signal;HPM_P1;HPM_P2
2023/08/29 06:56:30;;;;;;;10.82;6.88;;;;;;;13.15;100.00;101032.88;5096066;27;20396;-67
2023/08/29 06:58:55;;;;;;;14.95;7.13;;;;;;;13.19;100.00;101027.78;5089772;28;20032;-68
2023/08/29 07:01:21;;;;;;;15.23;7.40;;;;;;;13.25;100.00;101038.53;5096980;28;20027;-67
2023/08/29 07:03:46;;;;;;;12.60;11.30;;;;;;;13.26;100.00;101029.31;5109725;28;20111;-67
2023/08/29 07:06:11;;;;;;;11.52;9.88;;;;;;;13.30;100.00;101030.50;5108444;28;20035;-68
2023/08/29 07:08:37;;;;;;;11.70;10.50;;;;;;;13.36;100.00;101033.34;5110623;28;20024;-67
2023/08/29 07:11:03;;;;;;;11.35;9.95;;;;;;;13.42;100.00;101040.53;5109382;28;20020;-67
2023/08/29 07:13:28;;;;;;;10.93;9.82;;;;;;;13.49;100.00;101037.72;5108053;28;20032;-66
2023/08/29 07:15:54;;;;;;;13.95;10.38;;;;;;;13.57;100.00;101037.31;5104773;28;20366;-68
2023/08/29 07:18:20;;;;;;;12.40;11.02;;;;;;;13.64;100.00;101030.69;5091556;28;20066;-67
2023/08/29 07:20:48;;;;;;;12.38;10.30;;;;;;;13.65;100.00;101032.34;5106670;28;20412;-66
2023/08/29 07:23:14;;;;;;;12.35;9.30;;;;;;;13.72;100.00;101031.38;5109831;28;20067;-67
2023/08/29 07:25:42;;;;;;;10.95;9.15;;;;;;;13.74;100.00;101034.66;5108300;28;20066;-67
2023/08/29 07:28:09;;;;;;;17.75;10.00;;;;;;;13.80;100.00;101039.97;5109711;28;20019;-67
2023/08/29 07:30:34;;;;;;;18.10;10.38;;;;;;;13.88;100.00;101040.66;5105319;28;20039;-67
2023/08/29 07:32:59;;;;;;;16.95;9.90;;;;;;;13.87;100.00;101039.00;5096228;28;20023;-67
2023/08/29 07:35:24;;;;;;;16.05;9.35;;;;;;;13.91;100.00;101042.91;5098698;28;20059;-68
2023/08/29 07:37:51;;;;;;;11.90;8.50;;;;;;;13.90;100.00;101041.25;5108539;28;20028;-67
2023/08/29 07:40:19;;;;;;;10.73;9.57;;;;;;;13.92;100.00;101048.09;5104445;28;20436;-67
2023/08/29 07:42:45;;;;;;;16.25;9.75;;;;;;;13.99;100.00;101042.50;5095879;28;20374;-68
2023/08/29 07:45:10;;;;;;;13.48;9.50;;;;;;;14.03;100.00;101042.88;5098008;28;20040;-68
2023/08/29 07:47:35;;;;;;;11.38;8.30;;;;;;;14.08;100.00;101046.47;5091857;28;20440;-69
2023/08/29 07:50:01;;;;;;;10.90;8.48;;;;;;;14.15;100.00;101041.72;5100511;27;20020;-75
2023/08/29 07:52:26;;;;;;;10.80;8.73;;;;;;;14.26;100.00;101047.34;5097520;28;20027;-68
2023/08/29 07:54:51;;;;;;;9.68;8.23;;;;;;;14.34;100.00;101039.63;5105528;28;20043;-68
2023/08/29 07:57:19;;;;;;;12.60;7.95;;;;;;;14.42;100.00;101046.56;5096806;28;20077;-68
2023/08/29 07:59:45;;;;;;;10.82;7.45;;;;;;;14.40;100.00;101042.41;5106464;28;20439;-68
2023/08/29 08:02:10;;;;;;;8.25;7.10;;;;;;;14.41;100.00;101039.44;5105017;28;20027;-68
2023/08/29 08:04:36;;;;;;;12.45;7.82;;;;;;;14.46;100.00;101038.72;5105368;28;20024;-68
2023/08/29 08:07:02;;;;;;;9.45;7.57;;;;;;;14.52;100.00;101035.00;5097597;28;20478;-68
2023/08/29 08:09:28;;;;;;;10.80;8.30;;;;;;;14.53;100.00;101033.94;5077758;28;20024;-68
2023/08/29 08:11:54;;;;;;;12.52;8.35;;;;;;;14.62;100.00;101039.84;5094400;28;20417;-68
2023/08/29 08:14:19;;;;;;;10.32;8.40;;;;;;;14.71;100.00;101036.44;5093035;28;20024;-67
2023/08/29 08:16:44;;;;;;;11.00;7.68;;;;;;;14.79;100.00;101040.66;5092490;28;20020;-67
2023/08/29 08:19:10;;;;;;;11.25;7.75;;;;;;;14.81;100.00;101043.13;5083880;28;20024;-67
2023/08/29 08:21:35;;;;;;;9.15;7.22;;;;;;;14.89;100.00;101042.72;5077144;28;20111;-67
2023/08/29 08:24:01;;;;;;;9.35;6.97;;;;;;;14.94;100.00;101042.78;5095343;28;20026;-68
2023/08/29 08:26:27;;;;;;;8.57;7.28;;;;;;;15.02;100.00;101044.25;5094130;28;20020;-68
2023/08/29 08:28:53;;;;;;;9.70;7.50;;;;;;;15.07;100.00;101044.34;5089036;28;20183;-67
2023/08/29 08:31:19;;;;;;;11.13;7.35;;;;;;;15.14;100.00;101035.97;5079545;28;20428;-69
2023/08/29 08:33:45;;;;;;;8.13;6.18;;;;;;;15.23;100.00;101038.03;5089267;28;20054;-68
2023/08/29 08:36:10;;;;;;;6.47;4.78;;;;;;;15.32;100.00;101043.84;5080396;28;20025;-68
2023/08/29 08:38:35;;;;;;;5.75;4.57;;;;;;;15.38;100.00;101042.88;5086850;28;20380;-67
2023/08/29 08:41:01;;;;;;;5.80;5.05;;;;;;;15.46;100.00;101046.22;5089283;28;20032;-68
2023/08/29 08:43:29;;;;;;;5.07;4.57;;;;;;;15.54;100.00;101049.34;5080665;28;20439;-68
2023/08/29 08:45:57;;;;;;;6.07;5.00;;;;;;;15.61;100.00;101049.16;5088789;28;20075;-66
2023/08/29 08:48:23;;;;;;;5.65;5.10;;;;;;;15.66;100.00;101046.50;5076166;28;20021;-70
2023/08/29 08:50:49;;;;;;;5.68;4.72;;;;;;;15.74;100.00;101040.56;5084653;28;20081;-68
2023/08/29 08:53:15;;;;;;;8.20;5.65;;;;;;;15.84;100.00;101034.44;5079372;28;20379;-69
2023/08/29 08:55:41;;;;;;;4.57;4.18;;;;;;;15.83;100.00;101045.63;5085720;28;20394;-68
2023/08/29 08:58:06;;;;;;;9.55;4.15;;;;;;;15.87;100.00;101038.59;5077194;28;20051;-74
2023/08/29 09:00:32;;;;;;;4.10;3.65;;;;;;;15.92;100.00;101041.34;5073364;28;20708;-71
2023/08/29 09:02:58;;;;;;;6.03;3.85;;;;;;;15.81;100.00;101036.88;5090387;28;20024;-68
2023/08/29 09:05:24;;;;;;;8.90;3.40;;;;;;;15.83;100.00;101042.91;5093750;28;20073;-68
2023/08/29 09:07:49;;;;;;;4.93;3.70;;;;;;;15.80;100.00;101035.22;5090277;28;20370;-67
2023/08/29 09:10:16;;;;;;;4.78;3.70;;;;;;;15.86;100.00;101042.38;5093935;28;20031;-69
2023/08/29 09:12:46;;;;;;;4.57;3.20;;;;;;;15.89;100.00;101041.88;5093877;28;20081;-68
2023/08/29 09:15:12;;;;;;;5.63;3.65;;;;;;;16.07;100.00;101046.97;5093426;28;20084;-67
2023/08/29 09:17:50;;;;;;;4.68;3.65;;;;;;;16.04;100.00;101044.75;5076781;28;20032;-67
2023/08/29 09:20:16;;;;;;;4.82;3.20;;;;;;;16.15;100.00;101050.31;5089622;28;20024;-67
2023/08/29 09:22:44;;;;;;;3.70;3.28;;;;;;;16.25;100.00;101056.72;5080519;28;20040;-67
2023/08/29 09:25:10;;;;;;;6.22;3.30;;;;;;;16.24;100.00;101055.06;5093108;28;20099;-67
2023/08/29 09:27:53;;;;;;;4.65;3.33;;;;;;;16.25;100.00;101055.91;5092837;28;20035;-68
2023/08/29 09:30:19;;;;;;;3.00;2.70;;;;;;;16.26;100.00;101054.78;5092895;28;20417;-67
2023/08/29 09:32:50;;;;;;;3.40;2.60;;;;;;;16.29;100.00;101057.84;5092757;28;20019;-67
2023/08/29 09:35:18;;;;;;;5.28;2.80;;;;;;;16.40;100.00;101057.97;5090457;28;20028;-67
2023/08/29 09:37:54;;;;;;;4.20;2.47;;;;;;;16.44;100.00;101053.59;5080003;28;20028;-67
2023/08/29 09:40:21;;;;;;;2.20;2.00;;;;;;;16.43;100.00;101055.50;5090474;28;20070;-67
2023/08/29 09:43:07;;;;;;;4.18;2.50;;;;;;;16.47;100.00;101059.38;5082472;28;20028;-67
2023/08/29 09:45:33;;;;;;;3.80;2.53;;;;;;;16.58;100.00;101054.00;5072340;28;20052;-67
2023/08/29 09:48:02;;;;;;;4.43;2.20;;;;;;;16.55;100.00;101058.09;5075839;28;20028;-67
2023/08/29 09:50:29;;;;;;;2.97;2.13;;;;;;;16.56;100.00;101048.81;5079433;28;20110;-69
2023/08/29 09:52:56;;;;;;;4.93;2.80;;;;;;;16.61;100.00;101048.03;5092686;28;20032;-68
2023/08/29 09:55:22;;;;;;;5.22;2.65;;;;;;;16.60;100.00;101036.25;5077068;28;20101;-68
2023/08/29 09:57:51;;;;;;;5.93;2.63;;;;;;;16.68;100.00;101039.59;5084333;28;20032;-68
2023/08/29 10:00:19;;;;;;;4.35;3.13;;;;;;;16.73;100.00;101045.13;5084935;28;20032;-69
2023/08/29 10:02:47;;;;;;;6.25;2.90;;;;;;;16.63;100.00;101040.38;5089963;28;20075;-67
2023/08/29 10:05:14;;;;;;;5.70;2.97;;;;;;;16.69;100.00;101044.81;5090339;28;20039;-68
2023/08/29 10:07:46;;;;;;;3.55;2.90;;;;;;;16.70;100.00;101037.41;5074482;28;20060;-68
2023/08/29 10:10:12;;;;;;;5.07;2.70;;;;;;;16.79;100.00;101033.97;5074129;28;20090;-68
2023/08/29 10:12:37;;;;;;;2.80;2.35;;;;;;;16.89;100.00;101027.75;5090180;28;20461;-69
2023/08/29 10:15:04;;;;;;;3.40;2.60;;;;;;;16.89;100.00;101035.97;5091919;28;20531;-67
2023/08/29 10:17:32;;;;;;;4.05;2.80;;;;;;;16.88;100.00;101034.34;5090468;28;20381;-69
2023/08/29 10:19:59;;;;;;;4.10;2.83;;;;;;;17.00;100.00;101028.66;5092076;28;20164;-68
2023/08/29 10:22:28;;;;;;;3.90;2.63;;;;;;;16.98;100.00;101025.34;5089909;28;20032;-67
2023/08/29 10:24:56;;;;;;;5.18;2.78;;;;;;;17.00;100.00;101029.47;5080664;28;20077;-67
2023/08/29 10:27:21;;;;;;;3.97;2.75;;;;;;;16.96;100.00;101027.53;5091601;28;20024;-69
2023/08/29 10:29:47;;;;;;;2.97;2.40;;;;;;;17.00;100.00;101031.41;5089963;28;20455;-67
2023/08/29 10:32:13;;;;;;;4.18;2.70;;;;;;;17.04;100.00;101021.56;5091524;28;20036;-69
2023/08/29 10:34:40;;;;;;;3.20;2.70;;;;;;;17.05;100.00;101030.63;5078646;28;20055;-69
2023/08/29 10:37:16;;;;;;;3.60;2.90;;;;;;;17.05;100.00;101025.97;5092948;28;20103;-67
2023/08/29 10:39:42;;;;;;;5.95;2.60;;;;;;;17.07;100.00;101022.97;5091807;28;20024;-67
2023/08/29 10:42:08;;;;;;;3.60;2.50;;;;;;;17.14;100.00;101024.38;5092957;28;20043;-68
2023/08/29 10:44:40;;;;;;;4.65;2.60;;;;;;;17.13;100.00;101022.72;5091761;28;20032;-67
2023/08/29 10:47:30;;;;;;;3.65;2.70;;;;;;;17.15;100.00;101028.75;5091168;28;20039;-70
2023/08/29 10:49:58;;;;;;;7.28;2.63;;;;;;;17.18;100.00;101020.03;5075619;28;20035;-69
2023/08/29 10:52:23;;;;;;;2.92;2.20;;;;;;;17.25;100.00;101018.97;5072744;28;20037;-67
2023/08/29 10:55:02;;;;;;;4.50;2.20;;;;;;;17.27;100.00;101012.13;5089936;28;20535;-69
2023/08/29 10:57:29;;;;;;;3.40;1.95;;;;;;;17.36;100.00;101010.53;5091158;28;20032;-65
2023/08/29 10:59:56;;;;;;;2.92;1.90;;;;;;;17.35;100.00;101003.41;5092323;28;20074;-68
2023/08/29 11:02:31;;;;;;;3.03;2.00;;;;;;;17.39;100.00;101000.16;5089664;28;20027;-71
2023/08/29 11:05:02;;;;;;;3.10;1.45;;;;;;;17.62;100.00;101010.63;5080238;28;20024;-69
2023/08/29 11:07:28;;;;;;;3.00;1.30;;;;;;;17.64;100.00;101000.22;5074257;28;20066;-71
2023/08/29 11:10:15;;;;;;;4.15;1.30;;;;;;;17.81;100.00;101010.94;5091280;28;20023;-68
2023/08/29 11:13:16;;;;;;;5.07;1.50;;;;;;;17.98;100.00;100998.97;5092195;28;20032;-67
2023/08/29 11:16:05;;;;;;;3.03;1.77;;;;;;;18.00;100.00;100994.88;5033775;28;20053;-67
2023/08/29 11:18:32;;;;;;;3.78;1.55;;;;;;;17.97;100.00;101000.09;5069225;28;20282;-67
2023/08/29 11:21:08;;;;;;;3.55;1.42;;;;;;;17.96;100.00;100990.22;5084053;28;20077;-68
2023/08/29 11:23:40;;;;;;;3.03;1.50;;;;;;;17.88;100.00;100988.81;5087859;28;20089;-68
2023/08/29 11:26:05;;;;;;;3.92;1.73;;;;;;;17.96;100.00;100984.75;5087977;28;20028;-67
2023/08/29 11:28:33;;;;;;;3.45;1.35;;;;;;;18.09;100.00;100978.75;5076058;28;20033;-66
2023/08/29 11:30:59;;;;;;;3.60;1.77;;;;;;;18.32;100.00;100987.53;5084826;28;20027;-68
2023/08/29 11:33:35;;;;;;;2.70;1.85;;;;;;;18.43;100.00;100989.16;5091914;28;20024;-67
2023/08/29 11:36:02;;;;;;;3.95;1.90;;;;;;;18.58;100.00;100982.84;5091398;28;20054;-68
2023/08/29 11:38:31;;;;;;;1.48;1.33;;;;;;;18.81;100.00;100973.25;5080036;28;20029;-68
2023/08/29 11:40:58;;;;;;;2.53;1.75;;;;;;;18.99;100.00;100968.28;5086745;28;20028;-67
2023/08/29 11:43:24;;;;;;;3.42;1.70;;;;;;;19.16;100.00;100973.41;5094766;28;20028;-66
2023/08/29 11:45:56;;;;;;;3.38;1.48;;;;;;;19.22;100.00;100977.78;5081206;28;20077;-68
2023/08/29 11:48:29;;;;;;;2.83;1.10;;;;;;;19.25;100.00;100971.75;5094982;28;20443;-67
2023/08/29 11:50:56;;;;;;;2.22;0.90;;;;;;;19.20;84.59;100980.81;5093141;28;20120;-68
2023/08/29 11:53:22;;;;;;;2.78;1.02;;;;;;;19.01;98.21;100971.53;5091286;28;20033;-67
2023/08/29 11:55:48;;;;;;;1.92;1.15;;;;;;;18.85;91.46;100971.59;5081261;28;20036;-68
2023/08/29 11:58:14;;;;;;;2.45;1.02;;;;;;;18.66;99.63;100956.78;5094980;28;20059;-68
2023/08/29 12:00:40;;;;;;;2.38;1.20;;;;;;;18.71;100.00;100962.28;5086556;28;20072;-67
2023/08/29 12:03:05;;;;;;;1.48;0.98;;;;;;;18.74;84.38;100964.47;5075209;28;20073;-67
2023/08/29 12:05:31;;;;;;;1.92;1.00;;;;;;;18.65;81.52;100950.50;5088499;28;20032;-68
2023/08/29 12:07:56;;;;;;;2.35;1.00;;;;;;;18.77;86.88;100955.69;5092538;28;20020;-67
2023/08/29 12:10:21;;;;;;;2.92;1.27;;;;;;;19.07;100.00;100959.47;5082622;28;20043;-67
2023/08/29 12:12:47;;;;;;;3.20;1.38;;;;;;;19.17;91.90;100959.41;5093125;28;20024;-68
2023/08/29 12:15:14;;;;;;;2.08;1.40;;;;;;;19.26;89.80;100945.94;5091168;28;20059;-66
2023/08/29 12:17:42;;;;;;;2.95;1.40;;;;;;;19.49;100.00;100952.72;5094008;28;20020;-67
2023/08/29 12:20:13;;;;;;;2.65;1.20;;;;;;;19.73;97.32;100954.75;5093017;28;20036;-67
2023/08/29 12:22:49;;;;;;;2.35;1.52;;;;;;;19.61;83.64;100953.19;5091251;28;20459;-68
2023/08/29 12:25:15;;;;;;;2.50;1.25;;;;;;;19.51;94.79;100946.94;5095051;28;20059;-67
2023/08/29 12:27:40;;;;;;;2.85;1.50;;;;;;;19.40;82.17;100951.66;5094932;28;20087;-66
2023/08/29 12:30:06;;;;;;;1.60;1.40;;;;;;;19.51;87.79;100946.94;5089742;28;20141;-67
2023/08/29 12:32:32;;;;;;;1.70;1.38;;;;;;;19.71;94.89;100943.25;5090918;28;20393;-67
2023/08/29 12:34:58;;;;;;;2.67;1.60;;;;;;;19.77;84.61;100940.22;5095329;28;20362;-67
2023/08/29 12:37:24;;;;;;;2.33;1.58;;;;;;;19.83;83.03;100938.25;5094814;28;20028;-67
2023/08/29 12:39:50;;;;;;;3.22;1.50;;;;;;;20.03;87.52;100941.97;5090366;28;20027;-70
2023/08/29 12:42:16;;;;;;;1.45;1.35;;;;;;;19.85;74.93;100943.47;5093667;28;20020;-68
2023/08/29 12:44:42;;;;;;;1.77;1.27;;;;;;;19.78;75.84;100939.13;5092505;28;20069;-71
2023/08/29 12:47:08;;;;;;;2.78;1.70;;;;;;;19.58;82.32;100933.72;5091746;28;20028;-69
2023/08/29 12:49:33;;;;;;;2.00;1.40;;;;;;;19.40;77.06;100932.44;5077986;28;20050;-68
2023/08/29 12:51:59;;;;;;;2.90;1.70;;;;;;;19.25;79.57;100923.19;5074264;28;20042;-67
2023/08/29 12:54:24;;;;;;;4.03;1.80;;;;;;;19.21;85.74;100932.28;5074087;28;20490;-71
2023/08/29 12:56:49;;;;;;;3.72;1.80;;;;;;;19.12;80.95;100923.78;5074704;28;20020;-72
2023/08/29 12:59:15;;;;;;;2.08;1.33;;;;;;;19.11;86.84;100919.41;5073934;28;20504;-69
2023/08/29 13:01:40;;;;;;;3.25;1.50;;;;;;;19.08;78.42;100917.22;5080632;28;20024;-68
2023/08/29 13:04:06;;;;;;;2.10;1.20;;;;;;;19.01;74.08;100924.91;5094375;28;20031;-67
2023/08/29 13:06:31;;;;;;;1.27;1.17;;;;;;;18.99;82.10;100916.16;5072789;28;20056;-68
2023/08/29 13:08:57;;;;;;;1.55;1.40;;;;;;;18.99;85.25;100919.72;5073823;28;20027;-67
2023/08/29 13:11:22;;;;;;;4.10;1.52;;;;;;;18.97;91.15;100910.97;5073981;28;20030;-67
2023/08/29 13:13:48;;;;;;;2.65;1.65;;;;;;;18.99;89.98;100908.75;5078631;28;20418;-68
2023/08/29 13:16:15;;;;;;;5.57;2.13;;;;;;;18.94;81.40;100906.84;5082000;28;20017;-67
2023/08/29 13:18:41;;;;;;;5.32;2.22;;;;;;;18.94;81.80;100901.38;5086753;28;20031;-67
2023/08/29 13:21:07;;;;;;;4.32;2.92;;;;;;;18.99;85.47;100892.28;5094384;28;20039;-67
2023/08/29 13:23:32;;;;;;;4.20;3.20;;;;;;;19.04;93.99;100895.03;5090561;28;20036;-70
2023/08/29 13:25:58;;;;;;;4.15;3.30;;;;;;;19.04;90.15;100895.03;5079473;28;20085;-67
2023/08/29 13:28:23;;;;;;;5.45;4.22;;;;;;;19.07;86.44;100888.19;5075164;28;20028;-68
2023/08/29 13:30:48;;;;;;;5.00;4.15;;;;;;;19.10;81.71;100887.63;5072563;28;20024;-67
2023/08/29 13:33:14;;;;;;;5.30;4.25;;;;;;;19.15;93.05;100878.53;5074050;28;20107;-73
2023/08/29 13:35:39;;;;;;;4.90;4.50;;;;;;;19.16;83.54;100875.50;5073450;28;20524;-68
2023/08/29 13:38:05;;;;;;;4.80;4.40;;;;;;;19.15;84.02;100871.13;5072370;28;20168;-68
2023/08/29 13:40:31;;;;;;;5.70;4.57;;;;;;;19.19;85.64;100874.09;5073752;28;20059;-71
2023/08/29 13:42:56;;;;;;;6.72;4.70;;;;;;;19.18;80.81;100870.56;5094162;28;20055;-67
2023/08/29 13:45:21;;;;;;;6.20;4.50;;;;;;;19.32;85.11;100870.75;5091561;28;20554;-67
2023/08/29 13:47:47;;;;;;;4.95;4.45;;;;;;;19.32;80.30;100872.69;5093514;28;20030;-67
2023/08/29 13:50:12;;;;;;;3.97;3.67;;;;;;;19.36;87.05;100873.75;5093740;28;20059;-67
2023/08/29 13:52:37;;;;;;;5.68;3.72;;;;;;;19.37;83.76;100875.38;5093475;28;20028;-67
2023/08/29 13:55:03;;;;;;;4.10;3.70;;;;;;;19.43;86.06;100874.25;5091680;28;20044;-67
2023/08/29 13:57:29;;;;;;;6.13;3.85;;;;;;;19.62;86.47;100866.16;5072746;28;20119;-67
2023/08/29 13:59:54;;;;;;;4.03;3.47;;;;;;;19.77;84.77;100867.97;5073528;28;20024;-67
2023/08/29 14:02:19;;;;;;;3.97;3.58;;;;;;;19.84;74.64;100871.25;5070904;28;20499;-68
2023/08/29 14:04:45;;;;;;;5.03;3.80;;;;;;;19.76;81.65;100871.81;5070649;28;20032;-68
2023/08/29 14:07:10;;;;;;;6.07;3.67;;;;;;;19.68;84.39;100872.44;5083601;28;20028;-69
2023/08/29 14:09:36;;;;;;;4.32;3.60;;;;;;;19.55;87.47;100877.47;5075393;28;20074;-69
2023/08/29 14:12:01;;;;;;;4.03;3.65;;;;;;;19.53;92.69;100876.91;5073074;28;20028;-69
